createdAt,value
2019-01-05T00:00:39.447Z,28.12
2019-01-05T00:03:08.406Z,29.32
2019-01-05T00:05:55.659Z,30.52
2019-01-05T00:08:33.465Z,29.10
2019-01-05T00:11:11.002Z,31.75
2019-01-05T00:13:42.932Z,32.58
2019-01-05T00:16:11.863Z,29.42
2019-01-05T00:18:43.710Z,28.30
2019-01-05T00:21:21.468Z,29.67
2019-01-05T00:24:02.472Z,27.27
2019-01-05T00:26:37.411Z,29.00
2019-01-05T00:29:06.335Z,31.40
2019-01-05T00:31:51.891Z,31.60
2019-01-05T00:34:30.174Z,30.25
2019-01-05T00:37:05.123Z,27.73
2019-01-05T00:39:40.220Z,30.68
2019-01-05T00:42:11.953Z,33.83
2019-01-05T00:44:40.808Z,34.65
2019-01-05T00:47:26.371Z,32.55
2019-01-05T00:50:06.990Z,32.25
2019-01-05T00:52:45.182Z,28.10
2019-01-05T00:55:30.660Z,33.02
2019-01-05T00:58:16.003Z,29.30
2019-01-05T01:00:44.954Z,31.30
2019-01-05T01:03:25.912Z,30.85
2019-01-05T01:06:00.909Z,32.75
2019-01-05T01:08:29.831Z,29.10
2019-01-05T01:11:04.764Z,30.82
2019-01-05T01:13:50.005Z,29.35
2019-01-05T01:16:27.738Z,27.35
2019-01-05T01:19:14.761Z,27.52
2019-01-05T01:21:46.742Z,28.40
2019-01-05T01:24:15.595Z,27.98
2019-01-05T01:26:44.519Z,27.05
2019-01-05T01:29:31.486Z,26.77
2019-01-05T01:32:17.058Z,26.25
2019-01-05T01:35:04.222Z,27.05
2019-01-05T01:37:57.639Z,24.85
2019-01-05T01:40:29.516Z,24.87
2019-01-05T01:43:01.156Z,24.10
2019-01-05T01:45:46.449Z,25.27
2019-01-05T01:48:27.491Z,24.23
2019-01-05T01:51:13.029Z,23.90
2019-01-05T01:53:44.729Z,24.72
2019-01-05T01:56:16.440Z,24.98
2019-01-05T01:59:01.576Z,23.05
2019-01-05T02:01:33.614Z,24.00
2019-01-05T02:04:14.278Z,23.87
2019-01-05T02:06:43.223Z,24.37
2019-01-05T02:09:12.138Z,22.45
2019-01-05T02:11:47.259Z,23.75
2019-01-05T02:14:16.578Z,24.15
2019-01-05T02:16:49.905Z,21.90
2019-01-05T02:19:20.450Z,23.32
2019-01-05T02:22:08.430Z,21.65
2019-01-05T02:24:51.187Z,22.75
2019-01-05T02:27:45.455Z,23.77
2019-01-05T02:30:21.938Z,24.20
2019-01-05T02:32:55.280Z,23.20
2019-01-05T02:35:37.147Z,24.05
2019-01-05T02:38:24.332Z,25.48
2019-01-05T02:40:57.980Z,23.50
2019-01-05T02:44:00.015Z,24.95
2019-01-05T02:47:03.563Z,20.75
2019-01-05T02:49:43.046Z,22.95
2019-01-05T02:52:39.294Z,23.07
2019-01-05T02:55:37.322Z,25.50
2019-01-05T02:58:36.379Z,23.30
2019-01-05T03:01:12.673Z,23.50
2019-01-05T03:03:48.791Z,24.40
2019-01-05T03:06:19.343Z,27.52
2019-01-05T03:09:09.554Z,24.32
2019-01-05T03:11:46.082Z,24.77
2019-01-05T03:14:48.276Z,27.65
2019-01-05T03:17:39.111Z,31.97
2019-01-05T03:20:24.671Z,28.38
2019-01-05T03:23:11.774Z,27.90
2019-01-05T03:25:54.280Z,29.85
2019-01-05T03:28:58.148Z,25.88
2019-01-05T03:31:37.836Z,27.65
2019-01-05T03:34:08.420Z,24.98
2019-01-05T03:37:01.514Z,23.20
2019-01-05T03:39:53.431Z,24.05
2019-01-05T03:42:30.029Z,23.10
2019-01-05T03:45:28.056Z,23.45
2019-01-05T03:48:14.730Z,24.72
2019-01-05T03:50:57.287Z,24.05
2019-01-05T03:53:47.284Z,24.92
2019-01-05T03:56:34.593Z,37.20
2019-01-05T03:59:21.315Z,29.63
2019-01-05T04:02:25.011Z,21.80
2019-01-05T04:05:04.352Z,25.12
2019-01-05T04:07:37.583Z,25.17
2019-01-05T04:10:17.196Z,23.18
2019-01-05T04:13:05.512Z,31.55
2019-01-05T04:15:51.311Z,23.50
2019-01-05T04:18:33.723Z,25.68
2019-01-05T04:21:09.982Z,17.75
2019-01-05T04:23:56.782Z,23.02
2019-01-05T04:26:51.595Z,29.00
2019-01-05T04:29:27.893Z,19.35
2019-01-05T04:32:14.884Z,57.58
2019-01-05T04:34:51.527Z,17.90
2019-01-05T04:37:33.861Z,19.73
2019-01-05T04:40:24.241Z,18.75
2019-01-05T04:43:03.595Z,30.97
2019-01-05T04:45:59.378Z,19.05
2019-01-05T04:48:35.846Z,15.03
2019-01-05T04:51:21.292Z,14.03
2019-01-05T04:54:00.580Z,14.65
2019-01-05T04:57:04.395Z,45.67
2019-01-05T04:59:37.879Z,14.70
2019-01-05T05:02:24.923Z,28.38
2019-01-05T05:05:07.480Z,17.07
2019-01-05T05:07:59.230Z,22.42
2019-01-05T05:10:38.518Z,18.25
2019-01-05T05:13:14.698Z,12.10
2019-01-05T05:16:07.684Z,28.55
2019-01-05T05:18:40.950Z,37.95
2019-01-05T05:21:29.647Z,61.15
2019-01-05T05:24:31.223Z,36.65
2019-01-05T05:27:24.490Z,21.80
2019-01-05T05:30:16.440Z,74.27
2019-01-05T05:33:03.626Z,19.37
2019-01-05T05:36:00.149Z,34.15
2019-01-05T05:38:30.745Z,36.42
2019-01-05T05:41:20.998Z,17.12
2019-01-05T05:44:10.959Z,120.15
2019-01-05T05:46:59.332Z,16.12
2019-01-05T05:49:44.849Z,43.48
2019-01-05T05:52:21.463Z,15.85
2019-01-05T05:55:00.884Z,29.42
2019-01-05T05:57:37.610Z,11.60
2019-01-05T06:00:35.371Z,21.27
2019-01-05T06:03:27.047Z,44.25
2019-01-05T06:06:06.351Z,19.80
2019-01-05T06:08:42.577Z,15.93
2019-01-05T06:11:19.138Z,45.73
2019-01-05T06:14:18.338Z,15.53
2019-01-05T06:16:57.646Z,15.10
2019-01-05T06:19:52.176Z,23.47
2019-01-05T06:22:28.281Z,11.70
2019-01-05T06:25:33.704Z,11.35
2019-01-05T06:28:22.335Z,15.83
2019-01-05T06:31:15.783Z,10.18
2019-01-05T06:34:11.707Z,20.62
2019-01-05T06:36:58.999Z,11.55
2019-01-05T06:39:32.403Z,31.82
2019-01-05T06:42:20.944Z,20.02
2019-01-05T06:45:05.689Z,18.62
2019-01-05T06:47:52.627Z,11.22
2019-01-05T06:50:25.885Z,16.37
2019-01-05T06:52:56.459Z,9.83
2019-01-05T06:55:52.590Z,8.30
2019-01-05T06:58:47.431Z,9.45
2019-01-05T07:01:34.358Z,8.50
2019-01-05T07:04:16.443Z,11.90
2019-01-05T07:07:05.791Z,9.30
2019-01-05T07:09:51.452Z,8.20
2019-01-05T07:12:30.764Z,8.98
2019-01-05T07:15:18.062Z,11.33
2019-01-05T07:17:54.495Z,8.10
2019-01-05T07:20:44.464Z,11.63
2019-01-05T07:23:46.027Z,10.30
2019-01-05T07:26:28.870Z,9.55
2019-01-05T07:29:15.897Z,9.40
2019-01-05T07:31:58.465Z,9.23
2019-01-05T07:34:37.485Z,8.83
2019-01-05T07:37:38.576Z,9.38
2019-01-05T07:40:27.214Z,11.70
2019-01-05T07:43:06.924Z,10.65
2019-01-05T07:45:43.105Z,10.60
2019-01-05T07:48:47.076Z,11.75
2019-01-05T07:51:51.127Z,12.25
2019-01-05T07:54:41.367Z,13.60
2019-01-05T07:57:31.097Z,10.90
2019-01-05T08:00:17.857Z,27.70
2019-01-05T08:02:48.410Z,11.78
2019-01-05T08:05:33.737Z,12.15
2019-01-05T08:08:19.200Z,12.58
2019-01-05T08:11:04.943Z,14.13
2019-01-05T08:13:38.063Z,11.88
2019-01-05T08:16:20.393Z,11.35
2019-01-05T08:18:56.460Z,11.65
2019-01-05T08:22:00.035Z,13.65
2019-01-05T08:24:36.547Z,14.00
2019-01-05T08:27:18.988Z,11.15
2019-01-05T08:29:55.434Z,12.78
2019-01-05T08:32:31.860Z,12.25
2019-01-05T08:35:27.170Z,10.05
2019-01-05T08:38:13.950Z,13.78
2019-01-05T08:41:10.039Z,12.88
2019-01-05T08:44:03.231Z,14.45
2019-01-05T08:46:50.468Z,9.05
2019-01-05T08:49:37.426Z,11.90
2019-01-05T08:52:10.881Z,16.80
2019-01-05T08:55:14.686Z,9.55
2019-01-05T08:58:13.778Z,10.90
2019-01-05T09:01:05.418Z,12.23
2019-01-05T09:03:50.925Z,15.85
2019-01-05T09:06:42.557Z,9.80
2019-01-05T09:09:16.019Z,9.28
2019-01-05T09:12:19.815Z,9.83
2019-01-05T09:14:56.019Z,11.48
2019-01-05T09:17:46.239Z,10.40
2019-01-05T09:20:28.921Z,12.90
2019-01-05T09:23:31.310Z,11.50
2019-01-05T09:26:07.493Z,10.40
2019-01-05T09:28:49.983Z,10.23
2019-01-05T09:31:49.136Z,12.13
2019-01-05T09:34:31.016Z,9.05
2019-01-05T09:37:10.332Z,10.05
2019-01-05T09:40:08.836Z,13.85
2019-01-05T09:43:07.578Z,10.15
2019-01-05T09:45:50.342Z,7.97
2019-01-05T09:48:23.439Z,9.20
2019-01-05T09:51:10.151Z,9.80
2019-01-05T09:54:00.128Z,11.12
2019-01-05T09:56:33.339Z,10.68
2019-01-05T09:59:24.874Z,10.55
2019-01-05T10:02:28.456Z,8.05
2019-01-05T10:05:18.431Z,8.98
2019-01-05T10:07:48.899Z,8.80
2019-01-05T10:10:21.948Z,9.70
2019-01-05T10:13:25.940Z,12.63
2019-01-05T10:16:05.600Z,9.50
2019-01-05T10:18:45.015Z,11.63
2019-01-05T10:21:29.806Z,8.53
2019-01-05T10:24:26.923Z,8.10
2019-01-05T10:27:06.264Z,9.03
2019-01-05T10:30:08.601Z,9.10
2019-01-05T10:33:12.235Z,8.18
2019-01-05T10:35:54.831Z,8.38
2019-01-05T10:38:40.501Z,7.80
2019-01-05T10:41:34.967Z,7.80
2019-01-05T10:44:27.941Z,7.58
2019-01-05T10:47:03.919Z,7.70
2019-01-05T10:49:37.164Z,7.60
2019-01-05T10:52:26.823Z,7.90
2019-01-05T10:55:17.148Z,8.28
2019-01-05T10:57:56.790Z,7.08
2019-01-05T11:00:49.894Z,7.05
2019-01-05T11:03:26.062Z,8.15
2019-01-05T11:06:13.381Z,7.08
2019-01-05T11:09:05.218Z,7.15
2019-01-05T11:11:52.339Z,5.12
2019-01-05T11:14:37.754Z,6.47
2019-01-05T11:17:20.142Z,6.70
2019-01-05T11:19:56.648Z,6.60
2019-01-05T11:22:36.375Z,8.90
2019-01-05T11:25:23.787Z,6.92
2019-01-05T11:28:21.607Z,6.40
2019-01-05T11:31:13.343Z,7.70
2019-01-05T11:33:47.095Z,7.30
2019-01-05T11:36:36.845Z,7.30
2019-01-05T11:39:34.875Z,7.80
2019-01-05T11:42:31.812Z,7.22
2019-01-05T11:45:22.110Z,8.10
2019-01-05T11:47:55.371Z,6.70
2019-01-05T11:50:54.754Z,7.15
2019-01-05T11:53:37.179Z,7.55
2019-01-05T11:56:24.115Z,7.20
2019-01-05T11:58:57.443Z,6.55
2019-01-05T12:01:47.696Z,6.40
2019-01-05T12:04:36.316Z,6.90
2019-01-05T12:07:38.856Z,7.50
2019-01-05T12:10:26.980Z,7.62
2019-01-05T12:13:15.391Z,7.70
2019-01-05T12:15:45.943Z,7.30
2019-01-05T12:18:28.655Z,6.60
2019-01-05T12:21:01.696Z,6.67
2019-01-05T12:23:48.765Z,6.62
2019-01-05T12:26:25.795Z,7.40
2019-01-05T12:29:08.699Z,7.37
2019-01-05T12:32:12.414Z,7.47
2019-01-05T12:35:03.623Z,7.70
2019-01-05T12:37:50.637Z,7.30
2019-01-05T12:40:39.204Z,7.53
2019-01-05T12:43:15.412Z,7.45
2019-01-05T12:46:13.436Z,6.60
2019-01-05T12:48:49.662Z,7.92
2019-01-05T12:51:44.480Z,9.28
2019-01-05T12:54:48.092Z,9.33
2019-01-05T12:57:27.597Z,9.13
2019-01-05T13:00:19.016Z,9.03
2019-01-05T13:02:55.390Z,8.93
2019-01-05T13:05:42.542Z,8.93
2019-01-05T13:08:46.523Z,9.80
2019-01-05T13:11:19.934Z,7.60
2019-01-05T13:14:11.686Z,6.37
2019-01-05T13:17:04.676Z,6.03
2019-01-05T13:19:55.007Z,6.50
2019-01-05T13:22:41.715Z,7.00
2019-01-05T13:25:24.301Z,5.70
2019-01-05T13:28:06.163Z,6.10
2019-01-05T13:30:45.964Z,6.25
2019-01-05T13:33:39.170Z,6.70
2019-01-05T13:36:21.363Z,6.17
2019-01-05T13:39:14.752Z,7.17
2019-01-05T13:42:22.091Z,6.65
2019-01-05T13:45:25.616Z,6.70
2019-01-05T13:48:30.766Z,6.65
2019-01-05T13:51:22.618Z,6.47
2019-01-05T13:53:58.802Z,9.98
2019-01-05T13:56:43.286Z,9.65
2019-01-05T13:59:28.486Z,8.35
2019-01-05T14:02:15.457Z,6.25
2019-01-05T14:04:56.514Z,5.92
2019-01-05T14:07:25.431Z,6.12
2019-01-05T14:10:12.728Z,5.20
2019-01-05T14:12:41.640Z,5.60
2019-01-05T14:15:10.574Z,5.58
2019-01-05T14:17:48.373Z,4.75
2019-01-05T14:20:33.623Z,5.20
2019-01-05T14:23:18.965Z,5.95
2019-01-05T14:26:04.363Z,6.37
2019-01-05T14:28:33.267Z,5.62
2019-01-05T14:31:02.202Z,5.00
2019-01-05T14:33:31.144Z,4.90
2019-01-05T14:36:05.974Z,4.37
2019-01-05T14:38:40.702Z,4.30
2019-01-05T14:41:21.580Z,4.78
2019-01-05T14:43:53.216Z,4.80
2019-01-05T14:46:28.121Z,4.85
2019-01-05T14:49:12.114Z,5.05
2019-01-05T14:51:41.032Z,5.58
2019-01-05T14:54:26.453Z,5.22
2019-01-05T14:56:58.083Z,5.53
2019-01-05T14:59:45.352Z,5.37
2019-01-05T15:02:20.506Z,5.90
2019-01-05T15:04:58.746Z,5.90
2019-01-05T15:07:36.611Z,5.50
2019-01-05T15:10:18.646Z,5.47
2019-01-05T15:12:50.519Z,5.53
2019-01-05T15:15:35.895Z,5.15
2019-01-05T15:18:07.555Z,5.05
2019-01-05T15:20:52.642Z,4.90
2019-01-05T15:23:21.608Z,6.47
2019-01-05T15:25:56.240Z,5.75
2019-01-05T15:28:27.972Z,4.83
2019-01-05T15:31:02.708Z,6.30
2019-01-05T15:33:37.822Z,5.42
2019-01-05T15:36:12.701Z,5.60
2019-01-05T15:38:58.310Z,5.70
2019-01-05T15:41:43.478Z,5.70
2019-01-05T15:44:15.267Z,5.50
2019-01-05T15:46:49.739Z,5.33
2019-01-05T15:49:30.712Z,5.92
2019-01-05T15:51:59.643Z,5.95
2019-01-05T15:54:40.586Z,5.85
2019-01-05T15:57:25.871Z,5.37
2019-01-05T16:00:10.816Z,5.15
2019-01-05T16:02:57.830Z,5.45
2019-01-05T16:05:32.353Z,5.40
2019-01-05T16:08:13.186Z,6.95
2019-01-05T16:10:48.263Z,5.80
2019-01-05T16:13:33.736Z,6.45
2019-01-05T16:16:17.768Z,5.35
2019-01-05T16:19:03.201Z,6.42
2019-01-05T16:21:32.066Z,5.85
2019-01-05T16:24:16.087Z,6.25
2019-01-05T16:26:59.016Z,5.80
2019-01-05T16:29:30.680Z,6.80
2019-01-05T16:31:59.624Z,7.00
2019-01-05T16:34:37.840Z,6.55
2019-01-05T16:37:21.914Z,6.55
2019-01-05T16:39:59.486Z,6.22
2019-01-05T16:42:31.321Z,6.40
2019-01-05T16:45:03.117Z,6.37
2019-01-05T16:47:34.807Z,6.45
2019-01-05T16:50:09.659Z,6.75
2019-01-05T16:52:41.069Z,6.28
2019-01-05T16:55:26.271Z,5.80
2019-01-05T16:57:58.048Z,6.80
2019-01-05T17:00:32.799Z,6.28
2019-01-05T17:03:19.649Z,6.53
2019-01-05T17:06:00.298Z,6.65
2019-01-05T17:08:37.992Z,6.20
2019-01-05T17:11:13.071Z,6.78
2019-01-05T17:13:44.987Z,6.35
2019-01-05T17:16:16.872Z,6.85
2019-01-05T17:19:01.085Z,6.80
2019-01-05T17:21:35.959Z,7.28
2019-01-05T17:24:17.208Z,6.47
2019-01-05T17:26:52.284Z,6.78
2019-01-05T17:29:21.219Z,6.40
2019-01-05T17:31:58.967Z,7.65
2019-01-05T17:34:44.244Z,7.37
2019-01-05T17:37:29.561Z,7.20
2019-01-05T17:40:04.165Z,6.72
2019-01-05T17:42:33.120Z,7.65
2019-01-05T17:45:18.872Z,7.50
2019-01-05T17:47:47.817Z,8.68
2019-01-05T17:50:25.586Z,7.90
2019-01-05T17:53:12.594Z,6.87
2019-01-05T17:55:57.658Z,7.42
2019-01-05T17:58:35.105Z,7.70
2019-01-05T18:01:04.063Z,8.25
2019-01-05T18:03:49.390Z,6.95
2019-01-05T18:06:20.988Z,7.30
2019-01-05T18:08:49.894Z,7.40
2019-01-05T18:11:24.816Z,7.33
2019-01-05T18:14:10.136Z,5.92
2019-01-05T18:16:39.097Z,6.12
2019-01-05T18:19:07.982Z,7.33
2019-01-05T18:21:53.298Z,6.37
2019-01-05T18:24:22.235Z,6.75
2019-01-05T18:27:09.286Z,6.60
2019-01-05T18:29:47.203Z,7.00
2019-01-05T18:32:32.178Z,7.90
2019-01-05T18:35:17.296Z,8.20
2019-01-05T18:38:04.371Z,8.48
2019-01-05T18:40:33.320Z,8.05
2019-01-05T18:43:18.847Z,6.65
2019-01-05T18:45:56.373Z,6.10
2019-01-05T18:48:25.267Z,6.08
2019-01-05T18:50:54.189Z,5.55
2019-01-05T18:53:23.131Z,5.50
2019-01-05T18:55:52.067Z,5.70
2019-01-05T18:58:33.179Z,7.37
2019-01-05T19:01:05.108Z,5.58
2019-01-05T19:03:49.251Z,5.87
2019-01-05T19:06:36.114Z,6.25
2019-01-05T19:09:06.844Z,5.62
2019-01-05T19:11:35.733Z,5.05
2019-01-05T19:14:07.410Z,6.35
2019-01-05T19:16:36.327Z,5.20
2019-01-05T19:19:05.239Z,4.72
2019-01-05T19:21:36.875Z,5.75
2019-01-05T19:24:21.140Z,5.40
2019-01-05T19:27:06.461Z,6.05
2019-01-05T19:29:35.388Z,5.60
2019-01-05T19:32:10.451Z,6.20
2019-01-05T19:34:56.173Z,5.72
2019-01-05T19:37:41.431Z,6.12
2019-01-05T19:40:19.279Z,5.65
2019-01-05T19:42:51.194Z,6.47
2019-01-05T19:45:23.026Z,5.78
2019-01-05T19:48:08.336Z,6.28
2019-01-05T19:50:53.883Z,6.53
2019-01-05T19:53:37.854Z,6.35
2019-01-05T19:56:23.118Z,5.40
2019-01-05T19:59:08.551Z,6.70
2019-01-05T20:01:43.300Z,6.30
2019-01-05T20:04:15.181Z,5.90
2019-01-05T20:06:47.087Z,6.35
2019-01-05T20:09:34.132Z,5.75
2019-01-05T20:12:08.899Z,5.70
2019-01-05T20:14:46.583Z,5.92
2019-01-05T20:17:31.881Z,5.90
2019-01-05T20:20:12.625Z,6.42
2019-01-05T20:22:44.543Z,5.87
2019-01-05T20:25:16.484Z,6.05
2019-01-05T20:27:57.480Z,6.25
2019-01-05T20:30:26.418Z,6.35
2019-01-05T20:32:58.306Z,5.50
2019-01-05T20:35:43.630Z,5.83
2019-01-05T20:38:18.492Z,5.08
2019-01-05T20:41:04.000Z,5.42
2019-01-05T20:43:32.910Z,5.42
2019-01-05T20:46:07.678Z,5.70
2019-01-05T20:48:42.450Z,5.50
2019-01-05T20:51:11.325Z,5.90
2019-01-05T20:53:52.228Z,5.62
2019-01-05T20:56:27.078Z,6.28
2019-01-05T20:59:05.152Z,5.20
2019-01-05T21:01:39.691Z,6.53
2019-01-05T21:04:11.352Z,5.62
2019-01-05T21:06:49.072Z,5.25
2019-01-05T21:09:18.002Z,6.15
2019-01-05T21:11:58.852Z,5.92
2019-01-05T21:14:39.620Z,6.40
2019-01-05T21:17:24.836Z,5.65
2019-01-05T21:19:53.814Z,5.72
2019-01-05T21:22:25.347Z,5.47
2019-01-05T21:25:10.612Z,6.20
2019-01-05T21:27:39.522Z,5.72
2019-01-05T21:30:12.644Z,5.80
2019-01-05T21:32:47.578Z,5.65
2019-01-05T21:35:25.381Z,5.78
2019-01-05T21:38:03.142Z,5.83
2019-01-05T21:40:32.066Z,5.90
2019-01-05T21:43:10.323Z,4.80
2019-01-05T21:45:42.128Z,5.37
2019-01-05T21:48:14.021Z,5.30
2019-01-05T21:50:59.222Z,5.45
2019-01-05T21:53:34.322Z,5.72
2019-01-05T21:56:12.527Z,6.42
2019-01-05T21:58:58.069Z,5.97
2019-01-05T22:01:45.156Z,5.60
2019-01-05T22:04:30.484Z,6.78
2019-01-05T22:07:14.708Z,6.37
2019-01-05T22:09:59.804Z,6.58
2019-01-05T22:12:28.735Z,7.95
2019-01-05T22:15:13.814Z,6.83
2019-01-05T22:18:00.829Z,7.30
2019-01-05T22:20:29.748Z,6.55
2019-01-05T22:23:01.673Z,7.85
2019-01-05T22:25:47.297Z,5.90
2019-01-05T22:28:25.154Z,6.62
2019-01-05T22:31:10.399Z,6.58
2019-01-05T22:33:42.065Z,6.70
2019-01-05T22:36:27.563Z,6.60
2019-01-05T22:39:11.499Z,6.50
2019-01-05T22:41:58.730Z,6.67
2019-01-05T22:44:43.943Z,6.00
2019-01-05T22:47:18.648Z,6.47
2019-01-05T22:49:59.682Z,6.70
2019-01-05T22:52:37.775Z,6.47
2019-01-05T22:55:23.168Z,6.35
2019-01-05T22:58:08.479Z,5.45
2019-01-05T23:00:46.312Z,5.70
2019-01-05T23:03:18.172Z,6.00
2019-01-05T23:06:03.710Z,5.33
2019-01-05T23:08:47.707Z,4.97
2019-01-05T23:11:16.648Z,5.30
2019-01-05T23:14:01.911Z,5.00
2019-01-05T23:16:30.820Z,5.17
2019-01-05T23:19:08.878Z,4.53
2019-01-05T23:21:40.539Z,4.60
2019-01-05T23:24:25.724Z,4.95
2019-01-05T23:27:03.607Z,5.08
2019-01-05T23:29:44.710Z,5.50
2019-01-05T23:32:25.519Z,4.90
2019-01-05T23:34:54.455Z,4.65
2019-01-05T23:37:38.702Z,4.85
2019-01-05T23:40:10.591Z,4.50
2019-01-05T23:42:54.754Z,4.87
2019-01-05T23:45:29.552Z,6.90
2019-01-05T23:48:14.994Z,4.45
2019-01-05T23:51:00.211Z,4.58
2019-01-05T23:53:35.099Z,4.85
2019-01-05T23:56:20.342Z,4.42
2019-01-05T23:58:49.208Z,4.40
